sensor_id;sensor_type;location;lat;lon;timestamp;P1;durP1;ratioP1;P2;durP2;ratioP2
14015;SDS011;7083;48.854;9.158;2023-06-14T00:00:31;3.30;;;3.10;;
14015;SDS011;7083;48.854;9.158;2023-06-14T00:03:00;4.70;;;4.37;;
14015;SDS011;7083;48.854;9.158;2023-06-14T00:05:28;4.63;;;4.23;;
14015;SDS011;7083;48.854;9.158;2023-06-14T00:07:57;5.00;;;4.50;;
14015;SDS011;7083;48.854;9.158;2023-06-14T00:10:25;4.70;;;4.30;;
14015;SDS011;7083;48.854;9.158;2023-06-14T00:12:55;4.53;;;4.10;;
14015;SDS011;7083;48.854;9.158;2023-06-14T00:15:22;4.87;;;4.47;;
14015;SDS011;7083;48.854;9.158;2023-06-14T00:17:49;5.03;;;4.63;;
14015;SDS011;7083;48.854;9.158;2023-06-14T00:20:17;5.33;;;4.83;;
14015;SDS011;7083;48.854;9.158;2023-06-14T00:22:44;5.57;;;5.17;;
14015;SDS011;7083;48.854;9.158;2023-06-14T00:25:11;5.70;;;5.20;;
14015;SDS011;7083;48.854;9.158;2023-06-14T00:27:37;5.37;;;4.87;;
14015;SDS011;7083;48.854;9.158;2023-06-14T00:30:04;5.10;;;4.73;;
14015;SDS011;7083;48.854;9.158;2023-06-14T00:32:31;5.60;;;5.20;;
14015;SDS011;7083;48.854;9.158;2023-06-14T00:34:58;5.57;;;5.10;;
14015;SDS011;7083;48.854;9.158;2023-06-14T00:37:26;5.43;;;4.83;;
14015;SDS011;7083;48.854;9.158;2023-06-14T00:39:53;5.33;;;4.90;;
14015;SDS011;7083;48.854;9.158;2023-06-14T00:42:23;4.63;;;4.33;;
14015;SDS011;7083;48.854;9.158;2023-06-14T00:44:50;5.07;;;4.77;;
14015;SDS011;7083;48.854;9.158;2023-06-14T00:47:17;5.00;;;4.60;;
14015;SDS011;7083;48.854;9.158;2023-06-14T00:49:44;4.07;;;3.87;;
14015;SDS011;7083;48.854;9.158;2023-06-14T00:52:11;4.83;;;4.43;;
14015;SDS011;7083;48.854;9.158;2023-06-14T00:54:41;4.53;;;4.13;;
14015;SDS011;7083;48.854;9.158;2023-06-14T00:57:07;5.50;;;5.10;;
14015;SDS011;7083;48.854;9.158;2023-06-14T00:59:35;4.90;;;4.50;;
14015;SDS011;7083;48.854;9.158;2023-06-14T01:02:11;5.57;;;5.07;;
14015;SDS011;7083;48.854;9.158;2023-06-14T01:04:40;5.00;;;4.57;;
14015;SDS011;7083;48.854;9.158;2023-06-14T01:07:10;5.60;;;4.40;;
14015;SDS011;7083;48.854;9.158;2023-06-14T01:09:46;5.73;;;4.40;;
14015;SDS011;7083;48.854;9.158;2023-06-14T01:12:21;5.53;;;5.03;;
14015;SDS011;7083;48.854;9.158;2023-06-14T01:15:01;5.67;;;4.70;;
14015;SDS011;7083;48.854;9.158;2023-06-14T01:17:29;4.23;;;3.93;;
14015;SDS011;7083;48.854;9.158;2023-06-14T01:19:57;7.83;;;5.00;;
14015;SDS011;7083;48.854;9.158;2023-06-14T01:22:25;5.13;;;4.73;;
14015;SDS011;7083;48.854;9.158;2023-06-14T01:24:54;5.13;;;4.73;;
14015;SDS011;7083;48.854;9.158;2023-06-14T01:27:22;5.50;;;5.10;;
14015;SDS011;7083;48.854;9.158;2023-06-14T01:29:53;5.53;;;4.97;;
14015;SDS011;7083;48.854;9.158;2023-06-14T01:32:22;5.47;;;5.07;;
14015;SDS011;7083;48.854;9.158;2023-06-14T01:34:50;4.97;;;4.43;;
14015;SDS011;7083;48.854;9.158;2023-06-14T01:37:17;4.67;;;4.27;;
14015;SDS011;7083;48.854;9.158;2023-06-14T01:39:45;4.87;;;4.57;;
14015;SDS011;7083;48.854;9.158;2023-06-14T01:42:14;4.67;;;4.23;;
14015;SDS011;7083;48.854;9.158;2023-06-14T01:44:42;5.67;;;5.27;;
14015;SDS011;7083;48.854;9.158;2023-06-14T01:47:10;5.03;;;4.23;;
14015;SDS011;7083;48.854;9.158;2023-06-14T01:49:38;5.67;;;5.13;;
14015;SDS011;7083;48.854;9.158;2023-06-14T01:52:05;6.00;;;5.07;;
14015;SDS011;7083;48.854;9.158;2023-06-14T01:54:34;4.77;;;4.37;;
14015;SDS011;7083;48.854;9.158;2023-06-14T01:57:03;4.30;;;4.03;;
14015;SDS011;7083;48.854;9.158;2023-06-14T01:59:33;5.00;;;4.60;;
14015;SDS011;7083;48.854;9.158;2023-06-14T02:02:00;5.23;;;4.73;;
14015;SDS011;7083;48.854;9.158;2023-06-14T02:04:27;4.70;;;4.40;;
14015;SDS011;7083;48.854;9.158;2023-06-14T02:06:54;4.60;;;4.30;;
14015;SDS011;7083;48.854;9.158;2023-06-14T02:09:20;5.93;;;4.70;;
14015;SDS011;7083;48.854;9.158;2023-06-14T02:11:48;5.40;;;4.90;;
14015;SDS011;7083;48.854;9.158;2023-06-14T02:14:15;5.73;;;5.20;;
14015;SDS011;7083;48.854;9.158;2023-06-14T02:16:43;5.10;;;4.80;;
14015;SDS011;7083;48.854;9.158;2023-06-14T02:19:13;5.77;;;5.00;;
14015;SDS011;7083;48.854;9.158;2023-06-14T02:21:40;6.07;;;5.57;;
14015;SDS011;7083;48.854;9.158;2023-06-14T02:24:07;5.20;;;4.80;;
14015;SDS011;7083;48.854;9.158;2023-06-14T02:26:33;5.23;;;4.83;;
14015;SDS011;7083;48.854;9.158;2023-06-14T02:29:00;5.83;;;5.33;;
14015;SDS011;7083;48.854;9.158;2023-06-14T02:31:27;5.40;;;4.90;;
14015;SDS011;7083;48.854;9.158;2023-06-14T02:33:55;4.67;;;4.37;;
14015;SDS011;7083;48.854;9.158;2023-06-14T02:36:22;6.13;;;5.63;;
14015;SDS011;7083;48.854;9.158;2023-06-14T02:38:49;5.60;;;5.20;;
14015;SDS011;7083;48.854;9.158;2023-06-14T02:41:15;5.13;;;4.73;;
14015;SDS011;7083;48.854;9.158;2023-06-14T02:43:42;8.80;;;5.07;;
14015;SDS011;7083;48.854;9.158;2023-06-14T02:46:09;5.90;;;5.47;;
14015;SDS011;7083;48.854;9.158;2023-06-14T02:48:36;6.83;;;5.23;;
14015;SDS011;7083;48.854;9.158;2023-06-14T02:51:04;5.63;;;5.23;;
14015;SDS011;7083;48.854;9.158;2023-06-14T02:53:31;6.87;;;6.27;;
14015;SDS011;7083;48.854;9.158;2023-06-14T02:55:58;6.00;;;5.50;;
14015;SDS011;7083;48.854;9.158;2023-06-14T02:58:26;5.73;;;5.33;;
14015;SDS011;7083;48.854;9.158;2023-06-14T03:00:53;6.03;;;5.63;;
14015;SDS011;7083;48.854;9.158;2023-06-14T03:03:19;6.00;;;5.60;;
14015;SDS011;7083;48.854;9.158;2023-06-14T03:05:46;7.73;;;5.27;;
14015;SDS011;7083;48.854;9.158;2023-06-14T03:08:16;5.57;;;5.17;;
14015;SDS011;7083;48.854;9.158;2023-06-14T03:10:44;6.27;;;5.67;;
14015;SDS011;7083;48.854;9.158;2023-06-14T03:13:11;5.97;;;5.57;;
14015;SDS011;7083;48.854;9.158;2023-06-14T03:15:38;7.37;;;6.70;;
14015;SDS011;7083;48.854;9.158;2023-06-14T03:18:06;5.43;;;5.10;;
14015;SDS011;7083;48.854;9.158;2023-06-14T03:20:34;6.17;;;5.60;;
14015;SDS011;7083;48.854;9.158;2023-06-14T03:23:01;5.60;;;5.17;;
14015;SDS011;7083;48.854;9.158;2023-06-14T03:25:30;6.13;;;5.63;;
14015;SDS011;7083;48.854;9.158;2023-06-14T03:28:00;6.60;;;5.77;;
14015;SDS011;7083;48.854;9.158;2023-06-14T03:30:27;7.80;;;6.83;;
14015;SDS011;7083;48.854;9.158;2023-06-14T03:32:53;6.47;;;6.00;;
14015;SDS011;7083;48.854;9.158;2023-06-14T03:35:21;5.93;;;5.50;;
14015;SDS011;7083;48.854;9.158;2023-06-14T03:37:48;10.00;;;5.97;;
14015;SDS011;7083;48.854;9.158;2023-06-14T03:40:18;5.90;;;5.37;;
14015;SDS011;7083;48.854;9.158;2023-06-14T03:42:47;6.13;;;5.63;;
14015;SDS011;7083;48.854;9.158;2023-06-14T03:45:14;6.33;;;5.83;;
14015;SDS011;7083;48.854;9.158;2023-06-14T03:47:41;5.87;;;5.47;;
14015;SDS011;7083;48.854;9.158;2023-06-14T03:50:08;6.50;;;5.97;;
14015;SDS011;7083;48.854;9.158;2023-06-14T03:52:35;6.00;;;5.60;;
14015;SDS011;7083;48.854;9.158;2023-06-14T03:55:03;5.77;;;5.27;;
14015;SDS011;7083;48.854;9.158;2023-06-14T03:57:30;6.37;;;5.27;;
14015;SDS011;7083;48.854;9.158;2023-06-14T03:59:58;5.80;;;5.30;;
14015;SDS011;7083;48.854;9.158;2023-06-14T04:02:24;5.80;;;5.40;;
14015;SDS011;7083;48.854;9.158;2023-06-14T04:04:53;5.67;;;5.27;;
14015;SDS011;7083;48.854;9.158;2023-06-14T04:07:20;5.60;;;5.10;;
14015;SDS011;7083;48.854;9.158;2023-06-14T04:09:47;6.00;;;5.50;;
14015;SDS011;7083;48.854;9.158;2023-06-14T04:12:14;6.30;;;5.83;;
14015;SDS011;7083;48.854;9.158;2023-06-14T04:14:41;5.73;;;5.30;;
14015;SDS011;7083;48.854;9.158;2023-06-14T04:17:09;5.83;;;5.43;;
14015;SDS011;7083;48.854;9.158;2023-06-14T04:19:35;8.57;;;5.67;;
14015;SDS011;7083;48.854;9.158;2023-06-14T04:22:02;7.43;;;5.50;;
14015;SDS011;7083;48.854;9.158;2023-06-14T04:24:29;6.33;;;5.80;;
14015;SDS011;7083;48.854;9.158;2023-06-14T04:26:59;6.30;;;5.70;;
14015;SDS011;7083;48.854;9.158;2023-06-14T04:29:27;6.60;;;5.63;;
14015;SDS011;7083;48.854;9.158;2023-06-14T04:31:54;8.03;;;5.90;;
14015;SDS011;7083;48.854;9.158;2023-06-14T04:34:25;6.20;;;5.70;;
14015;SDS011;7083;48.854;9.158;2023-06-14T04:36:54;6.53;;;6.03;;
14015;SDS011;7083;48.854;9.158;2023-06-14T04:39:22;6.43;;;6.00;;
14015;SDS011;7083;48.854;9.158;2023-06-14T04:41:50;6.50;;;5.83;;
14015;SDS011;7083;48.854;9.158;2023-06-14T04:44:18;6.73;;;6.13;;
14015;SDS011;7083;48.854;9.158;2023-06-14T04:46:45;6.80;;;6.30;;
14015;SDS011;7083;48.854;9.158;2023-06-14T04:49:12;7.00;;;6.40;;
14015;SDS011;7083;48.854;9.158;2023-06-14T04:51:42;6.80;;;6.20;;
14015;SDS011;7083;48.854;9.158;2023-06-14T04:54:08;8.50;;;6.27;;
14015;SDS011;7083;48.854;9.158;2023-06-14T04:56:39;6.47;;;5.83;;
14015;SDS011;7083;48.854;9.158;2023-06-14T04:59:05;7.13;;;6.43;;
14015;SDS011;7083;48.854;9.158;2023-06-14T05:01:32;7.10;;;6.50;;
14015;SDS011;7083;48.854;9.158;2023-06-14T05:03:59;8.43;;;7.73;;
14015;SDS011;7083;48.854;9.158;2023-06-14T05:06:26;7.27;;;6.03;;
14015;SDS011;7083;48.854;9.158;2023-06-14T05:08:54;6.30;;;5.80;;
14015;SDS011;7083;48.854;9.158;2023-06-14T05:11:21;6.17;;;5.70;;
14015;SDS011;7083;48.854;9.158;2023-06-14T05:13:49;7.47;;;6.10;;
14015;SDS011;7083;48.854;9.158;2023-06-14T05:16:16;8.83;;;5.80;;
14015;SDS011;7083;48.854;9.158;2023-06-14T05:18:44;7.33;;;6.70;;
14015;SDS011;7083;48.854;9.158;2023-06-14T05:21:11;6.57;;;5.90;;
14015;SDS011;7083;48.854;9.158;2023-06-14T05:23:37;7.03;;;6.43;;
14015;SDS011;7083;48.854;9.158;2023-06-14T05:26:05;6.33;;;5.73;;
14015;SDS011;7083;48.854;9.158;2023-06-14T05:28:32;7.13;;;6.53;;
14015;SDS011;7083;48.854;9.158;2023-06-14T05:30:59;6.10;;;5.60;;
14015;SDS011;7083;48.854;9.158;2023-06-14T05:33:25;6.13;;;5.63;;
14015;SDS011;7083;48.854;9.158;2023-06-14T05:35:52;6.33;;;5.73;;
14015;SDS011;7083;48.854;9.158;2023-06-14T05:38:19;7.10;;;5.60;;
14015;SDS011;7083;48.854;9.158;2023-06-14T05:40:45;6.33;;;5.83;;
14015;SDS011;7083;48.854;9.158;2023-06-14T05:43:13;6.73;;;5.70;;
14015;SDS011;7083;48.854;9.158;2023-06-14T05:45:40;6.70;;;6.00;;
14015;SDS011;7083;48.854;9.158;2023-06-14T05:48:06;5.47;;;4.80;;
14015;SDS011;7083;48.854;9.158;2023-06-14T05:50:33;5.60;;;5.00;;
14015;SDS011;7083;48.854;9.158;2023-06-14T05:53:00;5.33;;;5.03;;
14015;SDS011;7083;48.854;9.158;2023-06-14T05:55:26;5.27;;;4.77;;
14015;SDS011;7083;48.854;9.158;2023-06-14T05:57:53;6.50;;;5.20;;
14015;SDS011;7083;48.854;9.158;2023-06-14T06:00:21;7.47;;;4.70;;
14015;SDS011;7083;48.854;9.158;2023-06-14T06:02:48;10.63;;;5.50;;
14015;SDS011;7083;48.854;9.158;2023-06-14T06:05:15;6.10;;;5.50;;
14015;SDS011;7083;48.854;9.158;2023-06-14T06:07:42;5.30;;;4.80;;
14015;SDS011;7083;48.854;9.158;2023-06-14T06:10:09;4.60;;;4.30;;
14015;SDS011;7083;48.854;9.158;2023-06-14T06:12:36;5.47;;;4.93;;
14015;SDS011;7083;48.854;9.158;2023-06-14T06:15:03;4.80;;;4.40;;
14015;SDS011;7083;48.854;9.158;2023-06-14T06:17:32;7.60;;;5.23;;
14015;SDS011;7083;48.854;9.158;2023-06-14T06:19:59;7.30;;;5.40;;
14015;SDS011;7083;48.854;9.158;2023-06-14T06:22:26;7.13;;;4.70;;
14015;SDS011;7083;48.854;9.158;2023-06-14T06:24:52;9.00;;;4.93;;
14015;SDS011;7083;48.854;9.158;2023-06-14T06:27:19;4.53;;;4.27;;
14015;SDS011;7083;48.854;9.158;2023-06-14T06:29:46;6.37;;;4.80;;
14015;SDS011;7083;48.854;9.158;2023-06-14T06:32:13;10.83;;;4.93;;
14015;SDS011;7083;48.854;9.158;2023-06-14T06:34:41;6.87;;;4.70;;
14015;SDS011;7083;48.854;9.158;2023-06-14T06:37:08;4.63;;;4.20;;
14015;SDS011;7083;48.854;9.158;2023-06-14T06:39:34;6.47;;;4.20;;
14015;SDS011;7083;48.854;9.158;2023-06-14T06:42:01;5.80;;;4.50;;
14015;SDS011;7083;48.854;9.158;2023-06-14T06:44:28;4.17;;;3.93;;
14015;SDS011;7083;48.854;9.158;2023-06-14T06:46:54;4.20;;;3.90;;
14015;SDS011;7083;48.854;9.158;2023-06-14T06:49:21;4.33;;;3.93;;
14015;SDS011;7083;48.854;9.158;2023-06-14T06:52:00;4.67;;;4.27;;
14015;SDS011;7083;48.854;9.158;2023-06-14T06:54:27;4.43;;;4.13;;
14015;SDS011;7083;48.854;9.158;2023-06-14T06:56:54;6.93;;;4.43;;
14015;SDS011;7083;48.854;9.158;2023-06-14T06:59:21;4.27;;;3.97;;
14015;SDS011;7083;48.854;9.158;2023-06-14T07:01:47;6.90;;;4.53;;
14015;SDS011;7083;48.854;9.158;2023-06-14T07:04:14;4.90;;;4.60;;
14015;SDS011;7083;48.854;9.158;2023-06-14T07:06:41;5.97;;;4.40;;
14015;SDS011;7083;48.854;9.158;2023-06-14T07:09:09;7.40;;;4.00;;
14015;SDS011;7083;48.854;9.158;2023-06-14T07:11:37;4.17;;;3.77;;
14015;SDS011;7083;48.854;9.158;2023-06-14T07:14:04;4.10;;;3.67;;
14015;SDS011;7083;48.854;9.158;2023-06-14T07:16:31;4.20;;;4.00;;
14015;SDS011;7083;48.854;9.158;2023-06-14T07:18:58;4.03;;;3.70;;
14015;SDS011;7083;48.854;9.158;2023-06-14T07:21:25;4.43;;;4.13;;
14015;SDS011;7083;48.854;9.158;2023-06-14T07:23:52;4.43;;;4.13;;
14015;SDS011;7083;48.854;9.158;2023-06-14T07:26:20;4.33;;;4.03;;
14015;SDS011;7083;48.854;9.158;2023-06-14T07:28:47;4.30;;;3.90;;
14015;SDS011;7083;48.854;9.158;2023-06-14T07:31:14;6.00;;;4.03;;
14015;SDS011;7083;48.854;9.158;2023-06-14T07:33:41;6.03;;;4.43;;
14015;SDS011;7083;48.854;9.158;2023-06-14T07:36:08;4.30;;;3.90;;
14015;SDS011;7083;48.854;9.158;2023-06-14T07:38:35;4.20;;;3.90;;
14015;SDS011;7083;48.854;9.158;2023-06-14T07:41:01;10.70;;;4.93;;
14015;SDS011;7083;48.854;9.158;2023-06-14T07:43:30;6.23;;;4.63;;
14015;SDS011;7083;48.854;9.158;2023-06-14T07:45:56;5.70;;;4.93;;
14015;SDS011;7083;48.854;9.158;2023-06-14T07:48:23;4.03;;;3.83;;
14015;SDS011;7083;48.854;9.158;2023-06-14T07:50:50;4.30;;;4.00;;
14015;SDS011;7083;48.854;9.158;2023-06-14T07:53:16;5.17;;;4.67;;
14015;SDS011;7083;48.854;9.158;2023-06-14T07:55:43;4.77;;;4.47;;
14015;SDS011;7083;48.854;9.158;2023-06-14T07:58:09;4.70;;;4.00;;
14015;SDS011;7083;48.854;9.158;2023-06-14T08:00:37;5.00;;;4.60;;
14015;SDS011;7083;48.854;9.158;2023-06-14T08:03:04;4.20;;;3.67;;
14015;SDS011;7083;48.854;9.158;2023-06-14T08:05:31;6.30;;;4.67;;
14015;SDS011;7083;48.854;9.158;2023-06-14T08:07:57;5.27;;;4.90;;
14015;SDS011;7083;48.854;9.158;2023-06-14T08:10:24;4.20;;;3.90;;
14015;SDS011;7083;48.854;9.158;2023-06-14T08:12:51;4.57;;;4.17;;
14015;SDS011;7083;48.854;9.158;2023-06-14T08:15:17;6.13;;;4.33;;
14015;SDS011;7083;48.854;9.158;2023-06-14T08:17:46;4.40;;;4.10;;
14015;SDS011;7083;48.854;9.158;2023-06-14T08:20:13;8.30;;;5.23;;
14015;SDS011;7083;48.854;9.158;2023-06-14T08:22:41;4.30;;;4.00;;
14015;SDS011;7083;48.854;9.158;2023-06-14T08:25:08;6.00;;;4.40;;
14015;SDS011;7083;48.854;9.158;2023-06-14T08:27:36;4.87;;;4.50;;
14015;SDS011;7083;48.854;9.158;2023-06-14T08:30:03;5.03;;;4.53;;
14015;SDS011;7083;48.854;9.158;2023-06-14T08:32:30;4.67;;;4.20;;
14015;SDS011;7083;48.854;9.158;2023-06-14T08:34:58;4.87;;;4.33;;
14015;SDS011;7083;48.854;9.158;2023-06-14T08:37:24;7.40;;;5.40;;
14015;SDS011;7083;48.854;9.158;2023-06-14T08:39:51;4.70;;;4.30;;
14015;SDS011;7083;48.854;9.158;2023-06-14T08:42:18;5.20;;;4.40;;
14015;SDS011;7083;48.854;9.158;2023-06-14T08:44:48;4.37;;;4.00;;
14015;SDS011;7083;48.854;9.158;2023-06-14T08:47:15;6.47;;;5.43;;
14015;SDS011;7083;48.854;9.158;2023-06-14T08:49:45;5.00;;;4.67;;
14015;SDS011;7083;48.854;9.158;2023-06-14T08:52:14;7.27;;;4.73;;
14015;SDS011;7083;48.854;9.158;2023-06-14T08:54:45;5.23;;;4.53;;
14015;SDS011;7083;48.854;9.158;2023-06-14T08:57:13;4.87;;;4.43;;
14015;SDS011;7083;48.854;9.158;2023-06-14T08:59:44;4.30;;;4.00;;
14015;SDS011;7083;48.854;9.158;2023-06-14T09:02:17;5.50;;;5.00;;
14015;SDS011;7083;48.854;9.158;2023-06-14T09:04:44;4.53;;;4.23;;
14015;SDS011;7083;48.854;9.158;2023-06-14T09:07:11;5.33;;;4.83;;
14015;SDS011;7083;48.854;9.158;2023-06-14T09:09:40;6.03;;;4.73;;
14015;SDS011;7083;48.854;9.158;2023-06-14T09:12:07;4.63;;;4.23;;
14015;SDS011;7083;48.854;9.158;2023-06-14T09:14:36;4.40;;;4.10;;
14015;SDS011;7083;48.854;9.158;2023-06-14T09:17:06;5.23;;;4.83;;
14015;SDS011;7083;48.854;9.158;2023-06-14T09:19:33;5.57;;;4.60;;
14015;SDS011;7083;48.854;9.158;2023-06-14T09:22:00;5.00;;;4.47;;
14015;SDS011;7083;48.854;9.158;2023-06-14T09:24:28;5.27;;;4.80;;
14015;SDS011;7083;48.854;9.158;2023-06-14T09:26:56;8.07;;;4.30;;
14015;SDS011;7083;48.854;9.158;2023-06-14T09:29:23;5.20;;;4.80;;
14015;SDS011;7083;48.854;9.158;2023-06-14T09:31:51;5.27;;;4.33;;
14015;SDS011;7083;48.854;9.158;2023-06-14T09:34:18;5.13;;;4.73;;
14015;SDS011;7083;48.854;9.158;2023-06-14T09:36:48;4.33;;;4.10;;
14015;SDS011;7083;48.854;9.158;2023-06-14T09:39:16;5.23;;;4.80;;
14015;SDS011;7083;48.854;9.158;2023-06-14T09:41:43;4.00;;;3.80;;
14015;SDS011;7083;48.854;9.158;2023-06-14T09:44:11;3.70;;;3.50;;
14015;SDS011;7083;48.854;9.158;2023-06-14T09:46:38;5.70;;;4.07;;
14015;SDS011;7083;48.854;9.158;2023-06-14T09:49:05;4.20;;;3.90;;
14015;SDS011;7083;48.854;9.158;2023-06-14T09:51:32;4.73;;;4.27;;
14015;SDS011;7083;48.854;9.158;2023-06-14T09:54:00;4.43;;;4.03;;
14015;SDS011;7083;48.854;9.158;2023-06-14T09:56:30;4.60;;;4.23;;
14015;SDS011;7083;48.854;9.158;2023-06-14T09:58:58;5.57;;;4.00;;
14015;SDS011;7083;48.854;9.158;2023-06-14T10:01:28;5.63;;;4.57;;
14015;SDS011;7083;48.854;9.158;2023-06-14T10:03:58;4.07;;;3.77;;
14015;SDS011;7083;48.854;9.158;2023-06-14T10:06:29;8.30;;;5.40;;
14015;SDS011;7083;48.854;9.158;2023-06-14T10:08:57;4.87;;;4.40;;
14015;SDS011;7083;48.854;9.158;2023-06-14T10:11:25;4.47;;;3.83;;
14015;SDS011;7083;48.854;9.158;2023-06-14T10:13:52;5.47;;;4.00;;
14015;SDS011;7083;48.854;9.158;2023-06-14T10:16:22;4.60;;;3.43;;
14015;SDS011;7083;48.854;9.158;2023-06-14T10:18:58;6.93;;;4.10;;
14015;SDS011;7083;48.854;9.158;2023-06-14T10:21:32;4.57;;;3.30;;
14015;SDS011;7083;48.854;9.158;2023-06-14T10:24:05;4.30;;;3.97;;
14015;SDS011;7083;48.854;9.158;2023-06-14T10:26:34;6.00;;;3.77;;
14015;SDS011;7083;48.854;9.158;2023-06-14T10:29:01;7.30;;;4.13;;
14015;SDS011;7083;48.854;9.158;2023-06-14T10:31:40;4.40;;;4.00;;
14015;SDS011;7083;48.854;9.158;2023-06-14T10:34:09;3.50;;;3.30;;
14015;SDS011;7083;48.854;9.158;2023-06-14T10:36:37;3.80;;;3.50;;
14015;SDS011;7083;48.854;9.158;2023-06-14T10:39:10;3.90;;;3.70;;
14015;SDS011;7083;48.854;9.158;2023-06-14T10:41:41;3.43;;;3.23;;
14015;SDS011;7083;48.854;9.158;2023-06-14T10:47:06;4.40;;;4.10;;
14015;SDS011;7083;48.854;9.158;2023-06-14T10:49:39;4.80;;;3.70;;
14015;SDS011;7083;48.854;9.158;2023-06-14T10:52:08;3.83;;;3.47;;
14015;SDS011;7083;48.854;9.158;2023-06-14T10:54:59;4.07;;;3.40;;
14015;SDS011;7083;48.854;9.158;2023-06-14T10:57:31;3.73;;;3.43;;
14015;SDS011;7083;48.854;9.158;2023-06-14T10:59:58;4.10;;;3.80;;
14015;SDS011;7083;48.854;9.158;2023-06-14T11:02:39;3.00;;;2.80;;
14015;SDS011;7083;48.854;9.158;2023-06-14T11:05:23;8.20;;;3.20;;
14015;SDS011;7083;48.854;9.158;2023-06-14T11:07:55;4.07;;;3.03;;
14015;SDS011;7083;48.854;9.158;2023-06-14T11:10:41;3.20;;;2.70;;
14015;SDS011;7083;48.854;9.158;2023-06-14T11:13:10;3.63;;;3.43;;
14015;SDS011;7083;48.854;9.158;2023-06-14T11:15:37;4.17;;;3.00;;
14015;SDS011;7083;48.854;9.158;2023-06-14T11:18:05;3.27;;;3.07;;
14015;SDS011;7083;48.854;9.158;2023-06-14T11:20:34;3.77;;;3.53;;
14015;SDS011;7083;48.854;9.158;2023-06-14T11:23:02;3.40;;;3.20;;
14015;SDS011;7083;48.854;9.158;2023-06-14T11:25:30;3.00;;;2.90;;
14015;SDS011;7083;48.854;9.158;2023-06-14T11:27:57;3.17;;;3.00;;
14015;SDS011;7083;48.854;9.158;2023-06-14T11:30:25;4.10;;;2.90;;
14015;SDS011;7083;48.854;9.158;2023-06-14T11:32:52;5.23;;;3.40;;
14015;SDS011;7083;48.854;9.158;2023-06-14T11:35:22;9.43;;;3.40;;
14015;SDS011;7083;48.854;9.158;2023-06-14T11:37:50;3.93;;;3.30;;
14015;SDS011;7083;48.854;9.158;2023-06-14T11:40:18;3.33;;;3.03;;
14015;SDS011;7083;48.854;9.158;2023-06-14T11:42:45;4.20;;;3.27;;
14015;SDS011;7083;48.854;9.158;2023-06-14T11:45:12;3.60;;;3.17;;
14015;SDS011;7083;48.854;9.158;2023-06-14T11:47:39;3.37;;;3.07;;
14015;SDS011;7083;48.854;9.158;2023-06-14T11:50:06;4.33;;;3.37;;
14015;SDS011;7083;48.854;9.158;2023-06-14T11:52:34;3.17;;;2.90;;
14015;SDS011;7083;48.854;9.158;2023-06-14T11:55:03;3.40;;;3.10;;
14015;SDS011;7083;48.854;9.158;2023-06-14T11:57:33;3.13;;;2.93;;
14015;SDS011;7083;48.854;9.158;2023-06-14T12:00:02;4.13;;;3.10;;
14015;SDS011;7083;48.854;9.158;2023-06-14T12:02:32;3.50;;;3.20;;
14015;SDS011;7083;48.854;9.158;2023-06-14T12:05:03;3.50;;;2.53;;
14015;SDS011;7083;48.854;9.158;2023-06-14T12:07:30;3.57;;;3.27;;
14015;SDS011;7083;48.854;9.158;2023-06-14T12:10:05;6.40;;;3.33;;
14015;SDS011;7083;48.854;9.158;2023-06-14T12:12:34;3.90;;;3.30;;
14015;SDS011;7083;48.854;9.158;2023-06-14T12:15:02;4.87;;;3.23;;
14015;SDS011;7083;48.854;9.158;2023-06-14T12:17:31;3.63;;;3.03;;
14015;SDS011;7083;48.854;9.158;2023-06-14T12:19:59;3.30;;;3.00;;
14015;SDS011;7083;48.854;9.158;2023-06-14T12:22:31;3.67;;;3.20;;
14015;SDS011;7083;48.854;9.158;2023-06-14T12:24:58;3.70;;;3.40;;
14015;SDS011;7083;48.854;9.158;2023-06-14T12:27:25;3.47;;;3.07;;
14015;SDS011;7083;48.854;9.158;2023-06-14T12:30:00;4.30;;;3.20;;
14015;SDS011;7083;48.854;9.158;2023-06-14T12:32:27;3.87;;;3.40;;
14015;SDS011;7083;48.854;9.158;2023-06-14T12:34:54;4.00;;;3.70;;
14015;SDS011;7083;48.854;9.158;2023-06-14T12:37:21;4.30;;;3.70;;
14015;SDS011;7083;48.854;9.158;2023-06-14T12:39:48;4.43;;;3.47;;
14015;SDS011;7083;48.854;9.158;2023-06-14T12:42:15;2.97;;;2.77;;
14015;SDS011;7083;48.854;9.158;2023-06-14T12:44:44;3.17;;;2.97;;
14015;SDS011;7083;48.854;9.158;2023-06-14T12:47:10;6.78;;;2.90;;
14015;SDS011;7083;48.854;9.158;2023-06-14T12:49:38;3.47;;;2.95;;
14015;SDS011;7083;48.854;9.158;2023-06-14T12:52:06;2.75;;;2.55;;
14015;SDS011;7083;48.854;9.158;2023-06-14T12:54:33;4.70;;;3.38;;
14015;SDS011;7083;48.854;9.158;2023-06-14T12:57:00;4.10;;;3.38;;
14015;SDS011;7083;48.854;9.158;2023-06-14T12:59:27;2.97;;;2.88;;
14015;SDS011;7083;48.854;9.158;2023-06-14T13:01:59;4.78;;;2.78;;
14015;SDS011;7083;48.854;9.158;2023-06-14T13:04:35;3.75;;;2.60;;
14015;SDS011;7083;48.854;9.158;2023-06-14T13:07:03;2.83;;;2.60;;
14015;SDS011;7083;48.854;9.158;2023-06-14T13:09:30;3.30;;;3.10;;
14015;SDS011;7083;48.854;9.158;2023-06-14T13:11:57;2.50;;;2.40;;
14015;SDS011;7083;48.854;9.158;2023-06-14T13:14:23;2.97;;;2.70;;
14015;SDS011;7083;48.854;9.158;2023-06-14T13:16:51;3.47;;;2.47;;
14015;SDS011;7083;48.854;9.158;2023-06-14T13:19:19;2.90;;;2.70;;
14015;SDS011;7083;48.854;9.158;2023-06-14T13:21:45;2.50;;;2.30;;
14015;SDS011;7083;48.854;9.158;2023-06-14T13:24:12;2.47;;;2.38;;
14015;SDS011;7083;48.854;9.158;2023-06-14T13:26:39;7.43;;;2.75;;
14015;SDS011;7083;48.854;9.158;2023-06-14T13:29:05;6.15;;;2.55;;
14015;SDS011;7083;48.854;9.158;2023-06-14T13:31:32;2.80;;;2.60;;
14015;SDS011;7083;48.854;9.158;2023-06-14T13:33:59;2.65;;;2.55;;
14015;SDS011;7083;48.854;9.158;2023-06-14T13:36:27;2.70;;;2.60;;
14015;SDS011;7083;48.854;9.158;2023-06-14T13:38:55;2.58;;;2.45;;
14015;SDS011;7083;48.854;9.158;2023-06-14T13:41:23;3.05;;;2.20;;
14015;SDS011;7083;48.854;9.158;2023-06-14T13:43:56;6.65;;;2.65;;
14015;SDS011;7083;48.854;9.158;2023-06-14T13:46:23;2.85;;;2.67;;
14015;SDS011;7083;48.854;9.158;2023-06-14T13:48:50;2.40;;;2.10;;
14015;SDS011;7083;48.854;9.158;2023-06-14T13:51:16;2.40;;;2.30;;
14015;SDS011;7083;48.854;9.158;2023-06-14T13:53:47;3.15;;;2.50;;
14015;SDS011;7083;48.854;9.158;2023-06-14T13:56:13;2.90;;;2.35;;
14015;SDS011;7083;48.854;9.158;2023-06-14T13:58:40;2.45;;;2.35;;
14015;SDS011;7083;48.854;9.158;2023-06-14T14:01:07;4.00;;;2.90;;
14015;SDS011;7083;48.854;9.158;2023-06-14T14:03:34;2.85;;;2.65;;
14015;SDS011;7083;48.854;9.158;2023-06-14T14:06:01;7.32;;;2.95;;
14015;SDS011;7083;48.854;9.158;2023-06-14T14:08:28;2.88;;;2.45;;
14015;SDS011;7083;48.854;9.158;2023-06-14T14:10:56;2.80;;;2.60;;
14015;SDS011;7083;48.854;9.158;2023-06-14T14:13:23;2.60;;;2.40;;
14015;SDS011;7083;48.854;9.158;2023-06-14T14:15:50;2.13;;;2.03;;
14015;SDS011;7083;48.854;9.158;2023-06-14T14:18:17;2.80;;;2.70;;
14015;SDS011;7083;48.854;9.158;2023-06-14T14:20:45;2.88;;;2.65;;
14015;SDS011;7083;48.854;9.158;2023-06-14T14:23:12;3.42;;;3.08;;
14015;SDS011;7083;48.854;9.158;2023-06-14T14:25:39;3.85;;;3.17;;
14015;SDS011;7083;48.854;9.158;2023-06-14T14:28:08;3.60;;;2.85;;
14015;SDS011;7083;48.854;9.158;2023-06-14T14:30:36;9.93;;;2.92;;
14015;SDS011;7083;48.854;9.158;2023-06-14T14:33:04;15.15;;;3.03;;
14015;SDS011;7083;48.854;9.158;2023-06-14T14:35:31;6.72;;;2.70;;
14015;SDS011;7083;48.854;9.158;2023-06-14T14:37:58;2.40;;;2.20;;
14015;SDS011;7083;48.854;9.158;2023-06-14T14:40:24;4.57;;;2.35;;
14015;SDS011;7083;48.854;9.158;2023-06-14T14:42:51;2.58;;;2.38;;
14015;SDS011;7083;48.854;9.158;2023-06-14T14:45:19;4.38;;;2.65;;
14015;SDS011;7083;48.854;9.158;2023-06-14T14:47:46;2.33;;;2.20;;
14015;SDS011;7083;48.854;9.158;2023-06-14T14:50:12;4.65;;;2.60;;
14015;SDS011;7083;48.854;9.158;2023-06-14T14:52:39;2.10;;;2.00;;
14015;SDS011;7083;48.854;9.158;2023-06-14T14:55:07;10.27;;;2.95;;
14015;SDS011;7083;48.854;9.158;2023-06-14T14:57:34;3.53;;;2.17;;
14015;SDS011;7083;48.854;9.158;2023-06-14T15:00:01;6.07;;;2.58;;
14015;SDS011;7083;48.854;9.158;2023-06-14T15:02:29;12.00;;;3.22;;
14015;SDS011;7083;48.854;9.158;2023-06-14T15:04:56;6.63;;;2.40;;
14015;SDS011;7083;48.854;9.158;2023-06-14T15:07:25;2.88;;;2.65;;